Ana Sayfa
METAR-TAF:

METAR-TAF

Havaalanları :

Berbérati, Orta Afrika Cumhuriyeti

Enlem: 04-15N, Boylam: 015-48E, yükseklik: 582 m

Güncel hava durumu gözlemi

Rapor saat 10:00 UTC de 18 saat ve 22 dakika önce yapıldı.
Rüzgar batıdan 14 kt
Sıcaklık 26°C
Nem 79%
Basınç 1017 hPa
Görüş mesafesi: 6000 m
1000 ft yükseklikte çok bulutlu
Pus

METAR: FEFT 181000Z 28014KT 6000 BR OVC010 26/22 Q1017

Saat: 05:22 (04:22 UTC)


TAF: eksik

4.000'den fazla havaalanı için hava durumu gözlemleri ve tahminleri (METAR ve TAF raporları).

Kullanılabilir istasyonlar harita üzerinde sarı ve kırmızı noktalarla gösterilir.

İstasyonun adını görmek için fareyi noktanın üzerinde gezdirin.

Sonrasında hava gözlem ve tahminlerini görmek için tıklayın.

Haritayı değiştirmek için: yaklaştırmak için siyah artı işaretli yeşil düğmeye ve uzaklaştırmak için de eksi işaretli düğmeye hızla tıklayın; bitişik haritalar için yeşil okları kullanın.


METAR-TAF: